Time;durP1;ratioP1;P1;durP2;ratioP2;P2;SDS_P1;SDS_P2;PMS_P1;PMS_P2;Temp;Humidity;BMP_temperature;BMP_pressure;BME280_temperature;BME280_humidity;BME280_pressure;Samples;Min_cycle;Max_cycle;Signal;HPM_P1;HPM_P2
2022/01/09 00:01:07;;;;;;;55.50;27.00;;;;;;;-0.78;72.59;99708.54;84571;1331;24180;-73
2022/01/09 00:03:21;;;;;;;55.50;27.80;;;;;;;-0.79;72.60;99703.23;84570;1332;24258;-74
2022/01/09 00:05:31;;;;;;;54.20;27.70;;;;;;;-0.82;72.64;99698.79;84554;1332;23918;-72
2022/01/09 00:07:42;;;;;;;;;;;;;;;-0.85;72.64;99698.10;84569;1330;22566;-72
2022/01/09 00:09:56;;;;;;;56.00;27.30;;;;;;;-0.90;72.52;99701.20;84536;1332;22623;-85
2022/01/09 00:12:08;;;;;;;51.60;27.60;;;;;;;-0.92;72.60;99704.98;84572;1333;23077;-84
2022/01/09 00:14:18;;;;;;;50.90;26.80;;;;;;;-0.94;72.73;99695.56;84667;1332;22649;-84
2022/01/09 00:16:29;;;;;;;52.30;27.20;;;;;;;-0.95;72.64;99696.92;84607;1332;23883;-84
2022/01/09 00:18:44;;;;;;;44.60;24.70;;;;;;;-0.94;72.65;99692.64;84568;1333;22751;-86
2022/01/09 00:20:53;;;;;;;51.90;27.20;;;;;;;-0.92;72.73;99694.02;84482;1335;25390;-71
2022/01/09 00:23:04;;;;;;;57.20;26.00;;;;;;;-0.90;72.69;99698.11;84594;1333;26651;-73
2022/01/09 00:25:15;;;;;;;51.60;27.20;;;;;;;-0.87;72.76;99693.15;84636;1334;22587;-86
2022/01/09 00:27:25;;;;;;;54.70;29.00;;;;;;;-0.84;72.79;99692.97;83899;1333;1003710;-85
2022/01/09 00:29:37;;;;;;;53.40;27.20;;;;;;;-0.85;72.61;99688.86;84610;1330;22598;-73
2022/01/09 00:31:47;;;;;;;54.90;27.00;;;;;;;-0.86;72.88;99691.77;84573;1332;23997;-73
2022/01/09 00:34:00;;;;;;;48.50;27.70;;;;;;;-0.86;72.76;99688.52;84587;1333;22619;-79
2022/01/09 00:36:11;;;;;;;64.40;30.30;;;;;;;-0.87;72.95;99687.15;84575;1329;22926;-74
2022/01/09 00:38:21;;;;;;;52.80;29.50;;;;;;;-0.89;72.76;99683.73;84558;1334;23919;-72
2022/01/09 00:40:29;;;;;;;;;;;;;;;-0.90;72.92;99681.52;84589;1331;22879;-83
2022/01/09 00:42:42;;;;;;;56.20;29.90;;;;;;;-0.95;72.82;99678.79;84628;1331;23964;-84
2022/01/09 00:44:56;;;;;;;61.00;32.00;;;;;;;-0.98;72.71;99677.42;84619;1330;22793;-72
2022/01/09 00:47:08;;;;;;;57.20;30.20;;;;;;;-0.99;72.78;99677.59;83832;1325;1003646;-72
2022/01/09 00:49:22;;;;;;;52.60;28.30;;;;;;;-1.02;72.73;99673.83;84494;1332;22639;-85
2022/01/09 00:51:32;;;;;;;53.00;25.90;;;;;;;-1.03;72.72;99669.90;84546;1331;22606;-86
2022/01/09 00:53:42;;;;;;;45.40;25.70;;;;;;;-1.02;72.83;99667.86;84490;1334;23070;-86
2022/01/09 00:55:51;;;;;;;53.00;26.80;;;;;;;-1.02;72.73;99661.00;84598;1330;22600;-84
2022/01/09 00:58:03;;;;;;;49.30;26.30;;;;;;;-0.99;72.89;99658.59;84619;1330;22599;-86
2022/01/09 01:00:17;;;;;;;53.30;27.50;;;;;;;-0.97;73.08;99659.45;84626;1330;22653;-85
2022/01/09 01:02:29;;;;;;;49.70;26.60;;;;;;;-0.94;73.08;99654.29;84611;1334;23214;-84
2022/01/09 01:04:42;;;;;;;49.90;28.30;;;;;;;-0.94;72.97;99654.29;84584;1330;23973;-72
2022/01/09 01:06:53;;;;;;;50.60;26.80;;;;;;;-0.92;72.89;99648.82;84554;1333;22633;-72
2022/01/09 01:09:03;;;;;;;54.40;28.20;;;;;;;-0.90;73.25;99649.83;84574;1332;22625;-84
2022/01/09 01:11:12;;;;;;;55.00;29.90;;;;;;;-0.90;72.91;99638.70;84599;1330;23977;-83
2022/01/09 01:13:23;;;;;;;58.50;27.90;;;;;;;-0.90;73.18;99638.53;84593;1326;22814;-86
2022/01/09 01:15:35;;;;;;;55.00;28.10;;;;;;;-0.92;72.94;99637.17;84595;1333;22887;-72
2022/01/09 01:17:47;;;;;;;58.90;28.40;;;;;;;-0.94;72.87;99633.23;84567;1330;22603;-72
2022/01/09 01:19:57;;;;;;;56.70;29.10;;;;;;;-0.94;72.96;99628.27;84541;1334;22717;-72
2022/01/09 01:22:07;;;;;;;52.30;28.20;;;;;;;-0.95;72.84;99631.70;84522;1331;22625;-73
2022/01/09 01:24:21;;;;;;;50.50;27.60;;;;;;;-0.96;72.83;99622.30;84580;1330;22816;-71
2022/01/09 01:26:34;;;;;;;54.40;25.60;;;;;;;-0.95;72.99;99625.19;84588;1331;22611;-72
2022/01/09 01:28:44;;;;;;;53.30;26.20;;;;;;;-0.93;72.62;99620.41;84530;1335;24280;-74
2022/01/09 01:30:55;;;;;;;53.50;29.00;;;;;;;-0.91;73.02;99617.15;84565;1333;22697;-72
2022/01/09 01:33:05;;;;;;;45.60;23.90;;;;;;;-0.90;72.81;99616.95;84573;1328;22894;-72
2022/01/09 01:35:14;;;;;;;53.30;27.80;;;;;;;-0.88;72.79;99615.42;84562;1335;24055;-86
2022/01/09 01:37:24;;;;;;;50.50;26.00;;;;;;;-0.86;72.80;99612.33;84578;1333;22864;-84
2022/01/09 01:39:33;;;;;;;53.40;26.90;;;;;;;-0.87;72.73;99603.09;84589;1334;22628;-73
2022/01/09 01:41:42;;;;;;;53.90;26.20;;;;;;;-0.88;72.81;99603.60;84553;1331;22621;-73
2022/01/09 01:43:51;;;;;;;54.30;26.70;;;;;;;-0.89;72.84;99600.35;84579;1330;22604;-72
2022/01/09 01:46:06;;;;;;;52.30;27.30;;;;;;;-0.90;72.83;99600.35;84656;1333;24328;-73
2022/01/09 01:48:15;;;;;;;53.50;27.00;;;;;;;-0.91;72.66;99599.33;84549;1334;22661;-72
2022/01/09 01:50:24;;;;;;;60.00;28.90;;;;;;;-0.93;72.81;99598.14;84585;1330;22602;-71
2022/01/09 01:52:37;;;;;;;60.10;26.70;;;;;;;-0.93;72.68;99600.73;84566;1334;22588;-72
2022/01/09 01:54:46;;;;;;;52.90;25.10;;;;;;;-0.93;72.82;99591.30;83229;1331;1003462;-73
2022/01/09 01:56:55;;;;;;;54.40;25.70;;;;;;;-0.90;72.81;99591.96;84595;1330;22609;-72
2022/01/09 01:59:05;;;;;;;51.10;24.60;;;;;;;-0.87;72.94;99585.80;84616;1329;26502;-84
2022/01/09 02:01:14;;;;;;;53.30;26.20;;;;;;;-0.85;72.95;99583.55;84580;1334;22859;-85
2022/01/09 02:03:23;;;;;;;50.70;26.50;;;;;;;-0.83;72.85;99582.52;84575;1331;22593;-85
2022/01/09 02:05:32;;;;;;;54.50;28.20;;;;;;;-0.82;72.49;99582.52;84586;1333;23135;-86
2022/01/09 02:07:41;;;;;;;55.20;27.70;;;;;;;-0.81;72.56;99586.10;84572;1331;24304;-86
2022/01/09 02:09:51;;;;;;;52.70;27.60;;;;;;;-0.82;72.41;99586.80;84589;1333;24347;-85
2022/01/09 02:12:04;;;;;;;51.10;26.10;;;;;;;-0.83;72.52;99582.17;84614;1332;22641;-86
2022/01/09 02:14:13;;;;;;;51.40;26.20;;;;;;;-0.84;72.49;99583.89;84596;1335;22793;-73
2022/01/09 02:16:27;;;;;;;55.60;29.50;;;;;;;-0.85;72.53;99583.39;84533;1329;25574;-74
2022/01/09 02:18:37;;;;;;;55.10;28.30;;;;;;;-0.88;72.43;99576.90;84544;1334;22586;-73
2022/01/09 02:20:50;;;;;;;52.00;27.40;;;;;;;-0.89;72.42;99573.98;84656;1329;24301;-85
2022/01/09 02:22:59;;;;;;;48.40;26.00;;;;;;;-0.91;72.56;99570.40;84683;1335;25366;-84
2022/01/09 02:25:11;;;;;;;53.60;26.20;;;;;;;-0.92;72.54;99567.84;84672;1331;25448;-84
2022/01/09 02:27:20;;;;;;;48.70;25.30;;;;;;;-0.93;72.57;99566.65;84623;1331;24257;-85
2022/01/09 02:29:30;;;;;;;51.90;25.50;;;;;;;-0.93;72.55;99562.20;84664;1329;22740;-84
2022/01/09 02:31:42;;;;;;;51.30;25.50;;;;;;;-0.91;72.61;99557.73;84466;1336;25250;-86
2022/01/09 02:33:52;;;;;;;52.90;27.10;;;;;;;-0.89;72.78;99555.31;84454;1336;22623;-86
2022/01/09 02:36:02;;;;;;;54.20;29.40;;;;;;;-0.85;72.75;99553.08;83871;1334;1003153;-86
2022/01/09 02:38:11;;;;;;;52.80;27.90;;;;;;;-0.84;72.56;99550.67;84615;1333;22628;-84
2022/01/09 02:40:22;;;;;;;57.40;28.00;;;;;;;-0.83;72.50;99552.73;84623;1333;22617;-85
2022/01/09 02:42:32;;;;;;;53.00;27.30;;;;;;;-0.84;72.48;99548.11;84615;1333;22601;-85
2022/01/09 02:44:41;;;;;;;52.80;25.50;;;;;;;-0.85;72.52;99551.02;83883;1331;1003498;-74
2022/01/09 02:47:00;;;;;;;53.30;27.00;;;;;;;-0.86;72.62;99546.91;84625;1333;24001;-73
2022/01/09 02:49:10;;;;;;;53.50;26.90;;;;;;;-0.90;72.42;99546.93;84577;1331;25279;-85
2022/01/09 02:51:19;;;;;;;53.40;27.20;;;;;;;-0.93;72.60;99547.13;84614;1330;24273;-85
2022/01/09 02:53:34;;;;;;;56.40;28.60;;;;;;;-0.97;72.37;99547.48;83866;1334;1003138;-85
2022/01/09 02:55:44;;;;;;;59.80;28.60;;;;;;;-1.00;72.33;99544.95;84626;1333;22604;-74
2022/01/09 02:57:56;;;;;;;51.10;25.60;;;;;;;-1.03;72.42;99536.73;84537;1335;23809;-74
2022/01/09 03:00:12;;;;;;;50.80;25.90;;;;;;;-1.05;72.46;99537.23;84495;1333;23913;-84
2022/01/09 03:02:27;;;;;;;54.80;26.60;;;;;;;-1.05;72.40;99536.21;83918;1334;902979;-84
2022/01/09 03:04:36;;;;;;;48.30;26.60;;;;;;;-1.03;72.52;99534.33;84654;1330;24253;-84
2022/01/09 03:06:48;;;;;;;50.70;26.70;;;;;;;-1.01;72.60;99532.27;84637;1335;22661;-84
2022/01/09 03:09:01;;;;;;;53.20;27.80;;;;;;;-0.99;72.40;99526.09;84695;1332;22579;-78
2022/01/09 03:11:12;;;;;;;48.20;26.60;;;;;;;-0.98;72.56;99522.67;84594;1332;24411;-73
2022/01/09 03:13:25;;;;;;;54.60;26.10;;;;;;;-0.99;72.30;99521.13;84594;1332;22626;-73
2022/01/09 03:15:38;;;;;;;57.00;28.00;;;;;;;-1.01;72.45;99517.71;84618;1327;22713;-72
2022/01/09 03:17:50;;;;;;;48.70;26.40;;;;;;;-1.03;72.55;99518.41;84514;1331;24391;-73
2022/01/09 03:20:02;;;;;;;55.10;27.20;;;;;;;-1.07;72.59;99520.30;84527;1336;25445;-85
2022/01/09 03:22:14;;;;;;;59.60;27.70;;;;;;;-1.10;72.39;99519.47;84727;1330;22693;-85
2022/01/09 03:24:24;;;;;;;58.40;29.60;;;;;;;-1.15;72.47;99520.01;84691;1333;22630;-86
2022/01/09 03:26:36;;;;;;;65.30;31.40;;;;;;;-1.20;72.46;99522.08;84649;1333;25340;-85
2022/01/09 03:28:48;;;;;;;59.60;29.50;;;;;;;-1.23;72.43;99520.39;84495;1336;24010;-84
2022/01/09 03:31:00;;;;;;;50.90;24.60;;;;;;;-1.25;72.56;99518.68;84630;1333;22788;-85
2022/01/09 03:33:10;;;;;;;49.40;24.90;;;;;;;-1.26;72.47;99517.14;84595;1335;25537;-85
2022/01/09 03:35:20;;;;;;;51.10;25.90;;;;;;;-1.26;72.64;99516.81;84614;1330;22599;-74
2022/01/09 03:37:30;;;;;;;46.30;25.50;;;;;;;-1.25;72.82;99515.42;84601;1330;22654;-72
2022/01/09 03:39:39;;;;;;;49.20;26.30;;;;;;;-1.25;72.71;99518.51;83885;1334;1002984;-84
2022/01/09 03:41:49;;;;;;;53.50;26.40;;;;;;;-1.24;72.63;99519.18;84625;1335;22597;-84
2022/01/09 03:44:01;;;;;;;56.30;26.10;;;;;;;-1.22;72.73;99517.99;84607;1334;22671;-81
2022/01/09 03:46:11;;;;;;;60.20;28.80;;;;;;;-1.19;72.94;99521.04;84623;1330;25451;-84
2022/01/09 03:48:24;;;;;;;48.20;24.80;;;;;;;-1.19;72.48;99522.77;84663;1330;22854;-84
2022/01/09 03:50:36;;;;;;;52.40;27.20;;;;;;;-1.22;72.65;99523.29;84588;1330;22729;-72
2022/01/09 03:52:47;;;;;;;59.00;28.20;;;;;;;-1.26;72.60;99524.34;83851;1335;1002599;-72
2022/01/09 03:54:57;;;;;;;51.80;28.00;;;;;;;-1.29;72.82;99522.11;84575;1329;22595;-73
2022/01/09 03:57:07;;;;;;;56.00;28.20;;;;;;;-1.33;72.69;99520.42;84550;1331;22928;-73
2022/01/09 03:59:16;;;;;;;54.30;25.90;;;;;;;-1.38;72.66;99517.19;84588;1334;22609;-73
2022/01/09 04:01:25;;;;;;;59.20;27.60;;;;;;;-1.46;72.73;99518.23;84592;1325;22591;-73
2022/01/09 04:03:34;;;;;;;53.90;26.40;;;;;;;-1.53;72.68;99520.14;84560;1333;24263;-73
2022/01/09 04:05:43;;;;;;;49.80;24.60;;;;;;;-1.60;72.89;99522.73;84578;1329;24393;-72
2022/01/09 04:07:53;;;;;;;53.10;25.50;;;;;;;-1.66;72.81;99524.45;84594;1321;22805;-73
2022/01/09 04:10:05;;;;;;;62.20;26.60;;;;;;;-1.71;73.11;99524.63;84612;1331;22705;-85
2022/01/09 04:12:17;;;;;;;46.40;26.00;;;;;;;-1.76;73.06;99523.79;84651;1324;22610;-84
2022/01/09 04:14:30;;;;;;;50.00;24.70;;;;;;;-1.83;73.15;99525.85;84653;1330;22731;-73
2022/01/09 04:16:39;;;;;;;50.20;26.60;;;;;;;-1.89;73.47;99521.42;84549;1334;22609;-73
2022/01/09 04:18:51;;;;;;;57.70;27.60;;;;;;;-1.94;73.49;99528.26;84609;1330;24769;-72
2022/01/09 04:21:04;;;;;;;53.70;27.30;;;;;;;-2.01;73.53;99523.30;84606;1321;22694;-73
2022/01/09 04:23:13;;;;;;;54.50;28.80;;;;;;;-2.09;73.81;99525.02;84577;1333;22615;-73
2022/01/09 04:25:23;;;;;;;52.90;27.00;;;;;;;-2.14;73.82;99525.20;84604;1333;25380;-85
2022/01/09 04:27:33;;;;;;;56.10;28.10;;;;;;;-2.21;73.89;99529.47;84652;1330;24056;-85
2022/01/09 04:29:45;;;;;;;54.90;27.50;;;;;;;-2.28;74.19;99528.10;83948;1329;1003794;-73
2022/01/09 04:31:54;;;;;;;56.00;28.50;;;;;;;-2.33;74.21;99526.73;84584;1329;22623;-73
2022/01/09 04:34:03;;;;;;;61.30;28.30;;;;;;;-2.39;74.28;99526.73;84629;1329;23883;-84
2022/01/09 04:36:12;;;;;;;75.20;28.60;;;;;;;-2.44;74.37;99523.64;84605;1334;23944;-85
2022/01/09 04:38:24;;;;;;;57.80;26.60;;;;;;;-2.47;74.60;99527.75;84566;1332;22892;-85
2022/01/09 04:40:33;;;;;;;60.00;27.60;;;;;;;-2.49;74.66;99523.48;84663;1333;25443;-85
2022/01/09 04:42:49;;;;;;;50.20;25.00;;;;;;;-2.50;74.78;99524.66;84602;1333;22615;-85
2022/01/09 04:44:58;;;;;;;54.80;27.40;;;;;;;-2.50;74.76;99527.40;84622;1333;22623;-85
2022/01/09 04:47:14;;;;;;;52.60;28.10;;;;;;;-2.52;74.97;99525.34;84610;1333;22592;-85
2022/01/09 04:49:27;;;;;;;54.00;27.30;;;;;;;-2.53;75.13;99521.59;84670;1330;25468;-73
2022/01/09 04:51:36;;;;;;;58.30;28.00;;;;;;;-2.54;75.09;99518.86;84557;1333;22734;-73
2022/01/09 04:53:45;;;;;;;58.50;29.70;;;;;;;-2.55;75.65;99512.88;84545;1331;25476;-73
2022/01/09 04:55:57;;;;;;;56.70;29.00;;;;;;;-2.55;75.42;99509.80;84703;1335;22616;-85
2022/01/09 04:58:07;;;;;;;55.30;28.50;;;;;;;-2.56;75.41;99509.30;84726;1329;23951;-84
2022/01/09 05:00:19;;;;;;;66.30;31.70;;;;;;;-2.58;76.07;99506.39;84629;1328;22662;-72
2022/01/09 05:02:28;;;;;;;57.20;29.10;;;;;;;-2.56;75.95;99503.48;84575;1335;22610;-74
2022/01/09 05:04:38;;;;;;;56.60;27.80;;;;;;;-2.54;75.84;99502.81;84565;1332;23986;-72
2022/01/09 05:06:48;;;;;;;52.80;26.80;;;;;;;-2.51;75.67;99503.98;84592;1329;24337;-72
2022/01/09 05:08:57;;;;;;;57.00;26.00;;;;;;;-2.48;75.87;99502.63;84626;1329;22591;-72
2022/01/09 05:11:06;;;;;;;53.20;27.90;;;;;;;-2.43;75.86;99501.09;84585;1331;22840;-73
2022/01/09 05:13:15;;;;;;;62.10;30.40;;;;;;;-2.39;75.88;99499.41;84559;1333;25308;-72
2022/01/09 05:15:24;;;;;;;61.60;30.00;;;;;;;-2.35;75.87;99496.34;84631;1333;22806;-73
2022/01/09 05:17:34;;;;;;;60.40;29.90;;;;;;;-2.31;75.87;99494.63;84575;1331;22615;-72
2022/01/09 05:19:43;;;;;;;60.50;30.10;;;;;;;-2.29;75.84;99494.27;84608;1330;24371;-73
2022/01/09 05:21:52;;;;;;;72.60;31.30;;;;;;;-2.28;75.82;99497.34;84557;1332;24130;-73
2022/01/09 05:24:05;;;;;;;62.30;30.70;;;;;;;-2.26;75.77;99494.29;84605;1328;23992;-84
2022/01/09 05:26:19;;;;;;;60.00;31.20;;;;;;;-2.26;75.63;99487.44;84636;1330;22755;-85
2022/01/09 05:28:29;;;;;;;59.10;26.50;;;;;;;-2.25;75.52;99490.17;84655;1328;22616;-84
2022/01/09 05:30:38;;;;;;;58.70;27.70;;;;;;;-2.26;75.65;99493.42;84710;1329;22620;-84
2022/01/09 05:32:48;;;;;;;62.70;29.50;;;;;;;-2.26;75.44;99494.29;84631;1331;22614;-84
2022/01/09 05:34:57;;;;;;;52.10;27.10;;;;;;;-2.24;75.58;99490.52;84585;1333;25315;-72
2022/01/09 05:37:10;;;;;;;51.20;27.60;;;;;;;-2.22;75.45;99488.80;84557;1327;22893;-74
2022/01/09 05:39:18;;;;;;;52.80;27.00;;;;;;;-2.20;75.63;99488.98;84625;1325;24248;-85
2022/01/09 05:41:28;;;;;;;57.00;29.70;;;;;;;-2.20;75.84;99492.91;84640;1330;23440;-87
2022/01/09 05:43:41;;;;;;;59.80;29.50;;;;;;;-2.22;75.59;99493.42;84644;1329;22933;-86
2022/01/09 05:45:50;;;;;;;47.80;27.60;;;;;;;-2.22;75.59;99494.27;84574;1334;24288;-72
2022/01/09 05:48:01;;;;;;;58.90;31.30;;;;;;;-2.23;75.58;99493.08;84597;1330;22606;-73
2022/01/09 05:50:12;;;;;;;57.90;28.60;;;;;;;-2.24;75.58;99493.08;84545;1332;22618;-86
2022/01/09 05:52:21;;;;;;;63.40;27.80;;;;;;;-2.28;75.74;99493.41;84607;1332;25379;-85
2022/01/09 05:54:31;;;;;;;59.60;29.30;;;;;;;-2.32;75.78;99487.78;84658;1329;23845;-84
2022/01/09 05:56:40;;;;;;;55.40;27.30;;;;;;;-2.37;75.84;99484.89;84517;1332;22618;-86
2022/01/09 05:58:49;;;;;;;59.20;28.10;;;;;;;-2.42;75.73;99482.15;84511;1332;22622;-85
2022/01/09 06:00:58;;;;;;;64.10;27.80;;;;;;;-2.47;75.93;99484.55;84514;1334;22946;-85
2022/01/09 06:03:08;;;;;;;57.50;28.10;;;;;;;-2.48;75.83;99483.34;84552;1332;22645;-84
2022/01/09 06:05:23;;;;;;;45.50;25.50;;;;;;;-2.49;75.85;99483.52;84532;1331;25295;-73
2022/01/09 06:07:34;;;;;;;53.60;26.00;;;;;;;-2.48;75.92;99482.66;84546;1331;22638;-72
2022/01/09 06:09:44;;;;;;;51.40;25.70;;;;;;;-2.47;76.05;99482.66;84570;1329;22625;-72
2022/01/09 06:11:53;;;;;;;48.30;23.40;;;;;;;-2.46;76.03;99483.86;84426;1335;22742;-72
2022/01/09 06:14:05;;;;;;;52.20;26.60;;;;;;;-2.46;75.97;99481.98;84545;1328;22594;-73
2022/01/09 06:16:15;;;;;;;49.10;25.20;;;;;;;-2.45;76.09;99484.54;84532;1331;22618;-72
2022/01/09 06:18:27;;;;;;;51.20;27.40;;;;;;;-2.47;76.21;99484.02;84563;1333;22609;-72
2022/01/09 06:20:37;;;;;;;54.30;26.20;;;;;;;-2.50;76.21;99485.21;84544;1330;23402;-72
2022/01/09 06:22:50;;;;;;;51.90;26.60;;;;;;;-2.54;76.10;99482.49;84469;1329;22740;-73
2022/01/09 06:24:59;;;;;;;49.40;26.80;;;;;;;-2.57;75.98;99484.88;84560;1332;24241;-86
2022/01/09 06:27:09;;;;;;;48.90;25.70;;;;;;;-2.58;76.05;99484.02;84554;1328;23864;-85
2022/01/09 06:29:16;;;;;;;;;;;;;;;-2.60;76.21;99487.95;84497;1333;22712;-73
2022/01/09 06:31:26;;;;;;;51.60;26.10;;;;;;;-2.63;76.05;99484.86;84552;1332;22669;-72
2022/01/09 06:33:35;;;;;;;51.10;24.30;;;;;;;-2.62;76.10;99486.23;84557;1332;22606;-73
2022/01/09 06:35:45;;;;;;;47.80;24.20;;;;;;;-2.61;76.33;99487.95;84566;1331;22565;-85
2022/01/09 06:37:54;;;;;;;54.20;26.80;;;;;;;-2.60;76.14;99489.49;83852;1334;1003061;-85
2022/01/09 06:40:10;;;;;;;49.30;25.70;;;;;;;-2.60;76.07;99489.66;84481;1332;22595;-73
2022/01/09 06:42:22;;;;;;;58.90;26.40;;;;;;;-2.60;76.00;99490.67;84437;1335;22677;-74
2022/01/09 06:44:34;;;;;;;57.30;28.40;;;;;;;-2.62;76.08;99491.70;84489;1333;22607;-73
2022/01/09 06:46:44;;;;;;;55.80;26.10;;;;;;;-2.64;76.03;99494.44;84559;1331;25488;-74
2022/01/09 06:48:58;;;;;;;52.20;27.10;;;;;;;-2.67;76.01;99495.63;83829;1331;1003193;-74
2022/01/09 06:51:06;;;;;;;60.80;28.20;;;;;;;-2.71;76.04;99491.18;84568;1332;24285;-85
2022/01/09 06:53:16;;;;;;;57.40;25.90;;;;;;;-2.76;75.98;99491.17;84608;1331;22612;-85
2022/01/09 06:55:26;;;;;;;51.80;26.60;;;;;;;-2.81;76.22;99490.82;84588;1332;22619;-75
2022/01/09 06:57:36;;;;;;;54.90;26.30;;;;;;;-2.85;76.21;99492.01;83847;1330;1003028;-73
2022/01/09 06:59:48;;;;;;;47.00;25.40;;;;;;;-2.88;76.28;99489.27;84622;1333;22619;-73
2022/01/09 07:02:00;;;;;;;51.30;24.60;;;;;;;-2.88;76.39;99489.61;84609;1327;22613;-74
2022/01/09 07:04:09;;;;;;;43.50;23.20;;;;;;;-2.88;76.30;99493.54;84582;1330;24262;-87
2022/01/09 07:06:21;;;;;;;53.00;24.40;;;;;;;-2.85;76.46;99493.89;84538;1335;24705;-85
2022/01/09 07:08:34;;;;;;;45.90;24.40;;;;;;;-2.81;76.55;99498.66;84648;1330;23912;-84
2022/01/09 07:10:46;;;;;;;47.00;24.70;;;;;;;-2.78;76.53;99499.87;84677;1330;24117;-85
2022/01/09 07:12:56;;;;;;;56.50;27.70;;;;;;;-2.76;76.51;99503.11;84648;1325;22609;-84
2022/01/09 07:15:06;;;;;;;53.00;26.40;;;;;;;-2.74;76.55;99501.93;83910;1333;1003085;-85
2022/01/09 07:17:18;;;;;;;56.90;27.10;;;;;;;-2.73;76.48;99501.23;84603;1332;23966;-86
2022/01/09 07:19:27;;;;;;;58.80;27.30;;;;;;;-2.72;76.39;99502.96;84593;1331;24272;-86
2022/01/09 07:21:40;;;;;;;60.80;27.30;;;;;;;-2.71;76.29;99505.53;84646;1325;25649;-86
2022/01/09 07:23:55;;;;;;;53.50;27.20;;;;;;;-2.71;76.22;99507.40;84662;1329;22978;-85
2022/01/09 07:26:04;;;;;;;57.30;26.90;;;;;;;-2.72;76.15;99509.09;84559;1330;24265;-73
2022/01/09 07:28:14;;;;;;;52.60;27.20;;;;;;;-2.73;76.16;99503.63;83899;1329;1003013;-74
2022/01/09 07:30:27;;;;;;;57.40;28.10;;;;;;;-2.74;76.19;99505.52;84520;1331;22559;-75
2022/01/09 07:32:37;;;;;;;48.70;25.30;;;;;;;-2.71;76.13;99507.73;83746;1332;1003711;-72
2022/01/09 07:34:46;;;;;;;56.70;27.20;;;;;;;-2.68;76.08;99507.56;84481;1332;24250;-83
2022/01/09 07:36:55;;;;;;;49.20;24.20;;;;;;;-2.62;76.16;99504.67;84652;1324;22614;-84
2022/01/09 07:39:05;;;;;;;54.70;24.60;;;;;;;-2.43;76.34;99508.45;84577;1332;22908;-73
2022/01/09 07:41:15;;;;;;;53.00;27.90;;;;;;;-2.16;76.35;99506.23;84554;1330;25457;-73
2022/01/09 07:43:24;;;;;;;61.40;26.90;;;;;;;-1.93;76.11;99506.71;84615;1330;23911;-72
2022/01/09 07:45:35;;;;;;;51.70;26.80;;;;;;;-1.67;75.81;99504.27;84541;1335;22625;-72
2022/01/09 07:47:45;;;;;;;53.20;26.90;;;;;;;-1.11;75.48;99502.19;84562;1334;22635;-72
2022/01/09 07:49:54;;;;;;;54.40;26.40;;;;;;;-0.57;74.85;99496.39;84668;1330;22554;-85
2022/01/09 07:52:03;;;;;;;51.10;25.10;;;;;;;-0.19;72.88;99494.39;83790;1332;1003200;-84
2022/01/09 07:54:16;;;;;;;53.50;27.80;;;;;;;-0.01;72.70;99491.14;84589;1324;23972;-74
2022/01/09 07:56:25;;;;;;;53.10;27.00;;;;;;;0.17;72.89;99484.96;84531;1329;22609;-73
2022/01/09 07:58:34;;;;;;;52.50;28.60;;;;;;;0.35;72.28;99488.20;84541;1330;24909;-74
2022/01/09 08:00:44;;;;;;;58.00;29.50;;;;;;;0.39;71.20;99491.09;84518;1332;23978;-85
2022/01/09 08:02:56;;;;;;;48.60;26.20;;;;;;;0.38;70.61;99489.36;84594;1330;23908;-84
2022/01/09 08:05:05;;;;;;;59.20;27.60;;;;;;;0.29;70.57;99487.42;84655;1329;22698;-84
2022/01/09 08:07:18;;;;;;;58.50;28.70;;;;;;;0.16;70.23;99489.27;83818;1330;1002984;-85
2022/01/09 08:09:27;;;;;;;54.80;28.50;;;;;;;0.01;68.94;99493.17;84562;1330;23947;-73
2022/01/09 08:11:37;;;;;;;51.90;26.30;;;;;;;-0.18;68.83;99492.14;84590;1333;24223;-72
2022/01/09 08:13:48;;;;;;;55.70;28.10;;;;;;;-0.31;69.33;99495.34;84588;1328;23127;-85
2022/01/09 08:16:02;;;;;;;57.60;27.10;;;;;;;-0.40;69.69;99496.09;84621;1329;23854;-85
2022/01/09 08:18:11;;;;;;;55.30;27.30;;;;;;;-0.46;69.63;99497.68;84673;1330;25476;-84
2022/01/09 08:20:21;;;;;;;56.20;28.40;;;;;;;-0.52;69.65;99497.39;84512;1335;22628;-72
2022/01/09 08:22:32;;;;;;;52.20;27.00;;;;;;;-0.56;69.39;99498.45;84580;1329;24184;-84
2022/01/09 08:24:45;;;;;;;52.90;29.40;;;;;;;-0.60;69.72;99494.86;84645;1329;22618;-74
2022/01/09 08:26:54;;;;;;;49.80;26.80;;;;;;;-0.63;69.70;99495.06;84575;1325;22750;-73
2022/01/09 08:29:08;;;;;;;51.40;27.40;;;;;;;-0.68;69.66;99498.17;84472;1333;22859;-85
2022/01/09 08:31:26;;;;;;;62.70;28.60;;;;;;;-0.71;69.57;99501.80;84570;1333;24007;-85
2022/01/09 08:33:37;;;;;;;51.40;26.20;;;;;;;-0.71;69.50;99506.08;84475;1333;23253;-73
2022/01/09 08:35:52;;;;;;;55.30;27.10;;;;;;;-0.74;69.75;99505.41;84521;1327;22620;-85
2022/01/09 08:38:06;;;;;;;53.80;26.60;;;;;;;-0.75;69.74;99507.80;84556;1323;22970;-85
2022/01/09 08:40:21;;;;;;;52.90;26.60;;;;;;;-0.69;69.88;99503.15;84507;1332;22620;-73
2022/01/09 08:42:34;;;;;;;46.30;25.10;;;;;;;-0.57;69.80;99504.95;84536;1333;22769;-72
2022/01/09 08:44:47;;;;;;;56.50;27.00;;;;;;;-0.40;69.92;99505.52;84480;1331;22875;-73
2022/01/09 08:46:59;;;;;;;53.80;27.50;;;;;;;-0.21;69.76;99504.00;84543;1335;22715;-73
2022/01/09 08:49:11;;;;;;;51.50;27.20;;;;;;;0.01;69.37;99504.32;84619;1329;22824;-86
2022/01/09 08:51:23;;;;;;;48.90;25.30;;;;;;;0.10;68.68;99505.27;84557;1326;23054;-85
2022/01/09 08:53:33;;;;;;;45.30;26.70;;;;;;;0.14;68.85;99504.38;84538;1333;22596;-73
2022/01/09 08:55:42;;;;;;;49.40;25.50;;;;;;;0.17;68.06;99502.28;84621;1330;22687;-86
2022/01/09 08:57:52;;;;;;;47.60;25.00;;;;;;;0.16;68.15;99501.77;84641;1329;22687;-85
2022/01/09 09:00:00;;;;;;;;;;;;;;;0.16;68.01;99503.48;84603;1332;22573;-73
2022/01/09 09:02:13;;;;;;;49.40;25.30;;;;;;;0.16;68.86;99502.47;84498;1332;23845;-86
2022/01/09 09:04:24;;;;;;;49.30;25.50;;;;;;;0.27;68.64;99502.36;84699;1327;22635;-86
2022/01/09 09:06:34;;;;;;;44.20;24.00;;;;;;;0.48;68.16;99505.56;84577;1332;22586;-87
2022/01/09 09:08:43;;;;;;;43.20;24.30;;;;;;;0.77;67.54;99505.23;84658;1329;22666;-86
2022/01/09 09:11:03;;;;;;;41.80;22.60;;;;;;;1.07;67.21;99502.95;84690;1329;22934;-87
2022/01/09 09:13:16;;;;;;;41.20;23.50;;;;;;;1.47;66.97;99506.33;84557;1332;25268;-87
2022/01/09 09:15:25;;;;;;;41.00;23.10;;;;;;;1.86;66.21;99501.59;84637;1329;22713;-85
2022/01/09 09:17:41;;;;;;;40.10;23.60;;;;;;;2.26;65.59;99507.79;84553;1331;24276;-73
2022/01/09 09:19:55;;;;;;;37.80;22.30;;;;;;;2.61;65.34;99505.06;84554;1335;25317;-72
2022/01/09 09:22:08;;;;;;;39.50;22.70;;;;;;;2.87;64.62;99506.27;84616;1330;22669;-86
2022/01/09 09:24:18;;;;;;;37.40;21.10;;;;;;;3.03;63.25;99506.79;84636;1333;24147;-84
2022/01/09 09:26:30;;;;;;;40.40;22.60;;;;;;;3.17;63.52;99504.41;84517;1331;24466;-85
2022/01/09 09:28:44;;;;;;;32.50;20.60;;;;;;;3.32;62.87;99503.59;84557;1332;25436;-85
2022/01/09 09:30:57;;;;;;;31.90;20.40;;;;;;;3.47;62.84;99503.41;84622;1329;22618;-70
2022/01/09 09:33:07;;;;;;;34.30;20.00;;;;;;;3.72;62.64;99503.01;84611;1330;22625;-71
2022/01/09 09:37:44;;;;;;;33.00;20.50;;;;;;;4.47;61.66;99503.83;84224;1338;25564;-71
2022/01/09 09:39:55;;;;;;;35.40;22.10;;;;;;;4.87;60.26;99502.89;84112;1338;22623;-72
2022/01/09 09:42:12;;;;;;;36.10;21.40;;;;;;;5.06;59.55;99498.89;84248;1338;22624;-70
2022/01/09 09:44:23;;;;;;;43.60;22.70;;;;;;;5.33;59.04;99501.86;84251;1337;22677;-71
2022/01/09 09:46:34;;;;;;;35.40;21.50;;;;;;;5.45;58.54;99500.81;84380;1335;23880;-80
2022/01/09 09:48:44;;;;;;;38.60;23.00;;;;;;;5.60;58.40;99499.48;84368;1336;22715;-84
2022/01/09 09:50:54;;;;;;;35.70;23.30;;;;;;;5.77;57.37;99497.92;84640;1329;23874;-84
2022/01/09 09:53:03;;;;;;;36.90;23.20;;;;;;;5.86;57.36;99497.61;84613;1329;22670;-83
2022/01/09 09:55:15;;;;;;;38.00;23.90;;;;;;;6.06;56.50;99499.77;84509;1332;22636;-84
2022/01/09 09:57:25;;;;;;;35.60;22.60;;;;;;;6.16;56.20;99496.98;84552;1333;24260;-84
2022/01/09 09:59:39;;;;;;;40.00;22.90;;;;;;;6.26;55.52;99495.62;84569;1331;24246;-83
2022/01/09 10:01:52;;;;;;;36.20;21.30;;;;;;;6.34;55.90;99493.42;84581;1330;22598;-83
2022/01/09 10:04:05;;;;;;;36.40;23.10;;;;;;;6.50;55.78;99493.04;84474;1332;24139;-72
2022/01/09 10:06:36;;;;;;;35.70;22.70;;;;;;;6.61;54.90;99489.52;84469;1332;25318;-70